20U

Beach Airport

Beach, North Dakota, USA
METAR K20U 210335Z AUTO 16015KT 10SM FEW033 OVC070 07/04 A3020 RMK AO2
Observed Flight Rules
Apr-21 @ 03:35 UTC (10 minutes ago) Visual Flight Rules
Wind Visibility Clouds
160° at 15 knots 10 miles
  • Few at 3,300' AGL
  • Overcast at 7,000' AGL
Temperatures Readings
Current 7°C / 45°F
Dewpoint 4°C / 39°F
Humidity 81%
Altimeter 30.2" Hg
Pressure 1023 hPa
Elevation 840
METAR K20U 210335Z AUTO 16015KT 10SM FEW033 OVC070 07/04 A3020 RMK AO2
Observed Flight Rules
Apr-21 @ 03:35 UTC
(10 minutes ago)
VFR
Wind Visibility
160° at 15 knots 10 miles
Clouds
  • Few at 3,300' AGL
  • Overcast at 7,000' AGL
Temperature Dewpoint
7°C / 45°F 4°C / 39°F
Humidity Altimeter Pressure
81% 30.2" Hg 1023 hPa